METAR AND TAF INFORMATION

METAR FOR LERS
ADDS - METARS form results

(1626 UTC 21 May 2022)
Data provider http://aviationweather.gov/metar/data/
 
METAR text: LERS 211600Z 20008KT 160V250 CAVOK 28/13 Q1018
Conditions at: LERS (REUS (CIV/MIL) , ES) observed 1600 UTC 21 May 2022
Temperature: 28.0°C (82°F)
Dewpoint: 13.0°C (55°F) [RH = 40%]
Pressure (altimeter): 30.06 inches Hg (1018.0 mb)
Winds: from the SSW (200 degrees) at 9 MPH (8 knots; 4.1 m/s)
Visibility: 6 or more miles (10+ km)
Ceiling: ceiling and visibility are OK
Clouds: unknown
Weather: no significant weather observed at this time

METAR text: LERS 211530Z 20008KT 170V240 CAVOK 28/14 Q1019
Conditions at: LERS (REUS (CIV/MIL) , ES) observed 1530 UTC 21 May 2022
Temperature: 28.0°C (82°F)
Dewpoint: 14.0°C (57°F) [RH = 42%]
Pressure (altimeter): 30.09 inches Hg (1019.0 mb)
Winds: from the SSW (200 degrees) at 9 MPH (8 knots; 4.1 m/s)
Visibility: 6 or more miles (10+ km)
Ceiling: ceiling and visibility are OK
Clouds: unknown
Weather: no significant weather observed at this time

Forecast for: LERS (REUS (CIV/MIL) , ES)
Text: TAF LERS 211400Z 2115/2215 22010KT CAVOK TX31/2212Z TN17/2206Z
Forecast period: 1500 to 1900 UTC 21 May 2022
Forecast type: FROM: standard forecast or significant change
Winds: from the SW (220 degrees) at 12 MPH (10 knots; 5.1 m/s)
Visibility: 6 or more miles (10+ km)
Ceiling: unknown
Clouds: missing
Weather: no significant weather forecast for this period
Text: BECMG 2119/2121 VRB04KT
Forecast period: 1900 UTC 21 May 2022 to 0900 UTC 22 May 2022
Forecast type: BECOMING: Conditions expected to become as follows by 2100 UTC 21 May 2022
Winds: variable direction winds at 5 MPH (4 knots; 2.1 m/s)
Visibility: 6 or more miles (10+ km)
Ceiling: unknown
Clouds: missing
Weather: no significant weather forecast for this period
Text: BECMG 2209/2211 20010KT
Forecast period: 0900 to 1500 UTC 22 May 2022
Forecast type: BECOMING: Conditions expected to become as follows by 1100 UTC 22 May 2022
Winds: from the SSW (200 degrees) at 12 MPH (10 knots; 5.1 m/s)
Visibility: 6 or more miles (10+ km)
Ceiling: unknown
Clouds: missing
Weather: no significant weather forecast for this period

 

AIRPORT MAP

 

RUNWAY INFORMATION

Runway 07 Runway length 8054 ft Runway width 148 ft
Runway elevation 231 ft Runway displaced threshold 853 ft Runway heading 69
Runway 25 Runway length 8054 ft Runway width 148 ft
Runway elevation 234 ft Runway displaced threshold 0 ft Runway heading 249
Runway 12 Runway length 3117 ft Runway width 115 ft
Runway elevation 226 ft Runway displaced threshold 0 ft Runway heading 111
Runway 30 Runway length 3117 ft Runway width 115 ft
Runway elevation 198 ft Runway displaced threshold 0 ft Runway heading 291

 

AIRPORT FREQUENCIES

Type APP Name APP Frequency 118.15 MHZ
Type GND Name GND Frequency 121.7 MHZ
Type TWR Name TWR Frequency 118.15 MHZ

 

AIRPORT NEAR NAVIGATION AIDS

Type VOR-DME Name Reus Frequency 114200 KHZ
Type NDB Name Reus Frequency 424 KHZ